createdAt,value
2018-06-21T00:00:37.483Z,79.80
2018-06-21T00:03:06.373Z,80.00
2018-06-21T00:05:35.092Z,80.60
2018-06-21T00:10:31.724Z,81.60
2018-06-21T00:13:00.142Z,82.30
2018-06-21T00:15:28.570Z,82.90
2018-06-21T00:17:57.035Z,83.50
2018-06-21T00:20:25.465Z,84.60
2018-06-21T00:22:53.922Z,84.80
2018-06-21T00:25:22.385Z,84.20
2018-06-21T00:27:50.858Z,84.80
2018-06-21T00:30:19.276Z,84.70
2018-06-21T00:32:47.737Z,85.30
2018-06-21T00:35:16.145Z,85.70
2018-06-21T00:37:44.589Z,86.40
2018-06-21T00:40:13.025Z,86.60
2018-06-21T00:42:41.491Z,87.30
2018-06-21T00:45:11.000Z,87.70
2018-06-21T00:47:40.178Z,87.90
2018-06-21T00:50:08.655Z,88.00
2018-06-21T00:52:37.228Z,88.70
2018-06-21T00:55:05.829Z,89.30
2018-06-21T00:57:34.277Z,89.20
2018-06-21T01:00:02.780Z,89.10
2018-06-21T01:02:31.257Z,90.00
2018-06-21T01:04:59.708Z,89.90
2018-06-21T01:07:28.139Z,89.80
2018-06-21T01:09:56.551Z,90.00
2018-06-21T01:12:25.005Z,90.10
2018-06-21T01:14:54.331Z,90.50
2018-06-21T01:17:22.811Z,90.10
2018-06-21T01:19:51.250Z,88.80
2018-06-21T01:22:19.747Z,89.00
2018-06-21T01:24:48.195Z,89.20
2018-06-21T01:27:16.627Z,88.40
2018-06-21T01:29:45.055Z,87.90
2018-06-21T01:32:13.504Z,87.10
2018-06-21T01:34:41.924Z,87.90
2018-06-21T01:37:10.359Z,87.20
2018-06-21T01:39:38.783Z,87.30
2018-06-21T01:42:07.225Z,86.70
2018-06-21T01:44:35.719Z,87.30
2018-06-21T01:47:04.202Z,86.40
2018-06-21T01:49:32.636Z,86.30
2018-06-21T01:52:01.073Z,86.40
2018-06-21T01:54:29.514Z,86.40
2018-06-21T01:56:58.027Z,86.50
2018-06-21T01:59:26.486Z,86.70
2018-06-21T02:01:55.180Z,86.40
2018-06-21T02:04:23.635Z,86.20
2018-06-21T02:06:52.095Z,86.80
2018-06-21T02:09:20.567Z,86.70
2018-06-21T02:11:48.987Z,87.10
2018-06-21T02:14:17.485Z,86.50
2018-06-21T02:16:46.007Z,86.90
2018-06-21T02:19:14.455Z,86.60
2018-06-21T02:21:42.881Z,87.00
2018-06-21T02:26:39.476Z,87.50
2018-06-21T02:29:07.927Z,87.70
2018-06-21T02:31:36.387Z,89.40
2018-06-21T02:34:04.844Z,88.90
2018-06-21T02:36:33.264Z,89.30
2018-06-21T02:39:01.725Z,89.90
2018-06-21T02:41:30.155Z,90.10
2018-06-21T02:43:58.594Z,90.50
2018-06-21T02:46:26.996Z,90.40
2018-06-21T02:48:55.431Z,90.20
2018-06-21T02:51:23.854Z,90.30
2018-06-21T02:53:52.318Z,90.20
2018-06-21T02:56:20.774Z,89.60
2018-06-21T02:58:49.203Z,89.40
2018-06-21T03:01:17.668Z,90.00
2018-06-21T03:03:46.151Z,90.20
2018-06-21T03:06:14.590Z,90.30
2018-06-21T03:08:43.018Z,90.50
2018-06-21T03:11:11.459Z,90.70
2018-06-21T03:13:39.882Z,90.50
2018-06-21T03:16:08.391Z,90.70
2018-06-21T03:18:36.978Z,89.90
2018-06-21T03:21:05.417Z,89.70
2018-06-21T03:23:33.847Z,88.80
2018-06-21T03:26:02.620Z,88.20
2018-06-21T03:28:31.048Z,88.90
2018-06-21T03:30:59.514Z,89.30
2018-06-21T03:33:27.982Z,89.40
2018-06-21T03:35:56.437Z,89.90
2018-06-21T03:38:24.900Z,90.00
2018-06-21T03:40:53.358Z,89.80
2018-06-21T03:43:21.790Z,90.20
2018-06-21T03:45:50.288Z,90.50
2018-06-21T03:48:18.736Z,90.30
2018-06-21T03:50:47.189Z,90.20
2018-06-21T03:53:15.634Z,90.40
2018-06-21T03:55:44.102Z,90.60
2018-06-21T03:58:12.528Z,90.70
2018-06-21T04:00:40.947Z,90.70
2018-06-21T04:03:09.438Z,90.90
2018-06-21T04:05:37.858Z,90.70
2018-06-21T04:08:06.340Z,89.90
2018-06-21T04:10:34.793Z,89.30
2018-06-21T04:13:03.628Z,88.20
2018-06-21T04:15:32.052Z,88.40
2018-06-21T04:18:00.548Z,89.10
2018-06-21T04:20:28.959Z,88.70
2018-06-21T04:22:57.405Z,88.40
2018-06-21T04:25:25.867Z,87.80
2018-06-21T04:27:54.329Z,86.90
2018-06-21T04:30:22.769Z,85.20
2018-06-21T04:32:51.208Z,85.30
2018-06-21T04:35:19.645Z,83.10
2018-06-21T04:37:48.105Z,84.00
2018-06-21T04:40:16.521Z,83.70
2018-06-21T04:42:45.014Z,82.80
2018-06-21T04:45:13.442Z,82.00
2018-06-21T04:47:41.892Z,80.60
2018-06-21T04:50:10.315Z,79.50
2018-06-21T04:52:38.803Z,79.30
2018-06-21T04:55:07.205Z,80.20
2018-06-21T04:57:35.671Z,80.10
2018-06-21T05:00:04.505Z,78.20
2018-06-21T05:02:32.912Z,78.50
2018-06-21T05:05:01.356Z,79.50
2018-06-21T05:07:29.803Z,78.90
2018-06-21T05:09:58.235Z,78.40
2018-06-21T05:12:26.679Z,80.40
2018-06-21T05:14:55.104Z,80.10
2018-06-21T05:17:23.574Z,80.90
2018-06-21T05:19:52.050Z,78.20
2018-06-21T05:22:20.519Z,76.10
2018-06-21T05:24:49.052Z,75.00
2018-06-21T05:27:17.506Z,74.40
2018-06-21T05:29:45.949Z,73.90
2018-06-21T05:32:14.367Z,73.80
2018-06-21T05:34:42.810Z,72.60
2018-06-21T05:37:11.286Z,71.50
2018-06-21T05:39:39.809Z,71.30
2018-06-21T05:42:08.257Z,71.70
2018-06-21T05:44:36.725Z,70.90
2018-06-21T05:47:05.205Z,70.80
2018-06-21T05:49:33.653Z,70.90
2018-06-21T05:52:02.164Z,71.50
2018-06-21T05:54:30.614Z,72.00
2018-06-21T05:56:59.104Z,71.70
2018-06-21T05:59:27.605Z,72.00
2018-06-21T06:02:04.243Z,73.10
2018-06-21T06:04:32.783Z,74.00
2018-06-21T06:07:01.231Z,74.50
2018-06-21T06:09:29.729Z,72.40
2018-06-21T06:11:58.198Z,71.70
2018-06-21T06:14:26.635Z,71.40
2018-06-21T06:16:55.622Z,71.10
2018-06-21T06:19:24.089Z,70.40
2018-06-21T06:21:52.595Z,71.20
2018-06-21T06:24:21.132Z,71.00
2018-06-21T06:26:49.706Z,71.50
2018-06-21T06:29:18.277Z,70.90
2018-06-21T06:31:46.700Z,71.30
2018-06-21T06:34:15.153Z,71.10
2018-06-21T06:36:43.675Z,69.80
2018-06-21T06:39:17.069Z,70.10
2018-06-21T06:41:46.871Z,71.70
2018-06-21T06:44:15.299Z,71.50
2018-06-21T06:46:45.039Z,69.80
2018-06-21T06:49:13.676Z,70.90
2018-06-21T06:51:42.149Z,69.40
2018-06-21T06:54:11.391Z,69.30
2018-06-21T06:56:39.941Z,68.10
2018-06-21T06:59:08.367Z,64.80
2018-06-21T07:01:36.922Z,65.90
2018-06-21T07:04:05.510Z,65.60
2018-06-21T07:06:33.959Z,66.10
2018-06-21T07:09:02.437Z,66.10
2018-06-21T07:11:31.568Z,65.50
2018-06-21T07:14:00.024Z,63.90
2018-06-21T07:16:28.511Z,63.80
2018-06-21T07:18:57.034Z,63.00
2018-06-21T07:21:25.520Z,62.60
2018-06-21T07:23:54.009Z,62.80
2018-06-21T07:26:22.615Z,62.80
2018-06-21T07:28:51.042Z,61.70
2018-06-21T07:31:19.534Z,61.60
2018-06-21T07:33:47.979Z,59.40
2018-06-21T07:36:16.435Z,59.90
2018-06-21T07:38:44.866Z,60.10
2018-06-21T07:41:13.429Z,60.30
2018-06-21T07:43:41.836Z,60.00
2018-06-21T07:46:10.263Z,59.40
2018-06-21T07:48:38.721Z,59.00
2018-06-21T07:51:07.359Z,57.10
2018-06-21T07:53:35.816Z,57.00
2018-06-21T07:56:04.304Z,57.30
2018-06-21T07:58:32.801Z,57.70
2018-06-21T08:01:01.212Z,58.20
2018-06-21T08:03:29.944Z,58.40
2018-06-21T08:05:58.778Z,58.90
2018-06-21T08:08:27.225Z,58.70
2018-06-21T08:10:55.640Z,58.60
2018-06-21T08:13:24.101Z,59.60
2018-06-21T08:15:52.631Z,60.50
2018-06-21T08:18:21.151Z,62.00
2018-06-21T08:20:49.665Z,61.40
2018-06-21T08:23:18.180Z,61.90
2018-06-21T08:25:46.615Z,63.10
2018-06-21T08:28:15.109Z,62.50
2018-06-21T08:30:43.637Z,62.80
2018-06-21T08:33:12.086Z,63.80
2018-06-21T08:35:40.520Z,63.90
2018-06-21T08:38:08.960Z,63.30
2018-06-21T08:40:37.413Z,63.00
2018-06-21T08:43:05.866Z,62.60
2018-06-21T08:45:34.329Z,63.50
2018-06-21T08:48:02.789Z,62.00
2018-06-21T08:50:31.211Z,58.30
2018-06-21T08:52:59.655Z,56.30
2018-06-21T08:55:28.084Z,56.80
2018-06-21T08:57:56.530Z,56.50
2018-06-21T09:00:24.945Z,56.50
2018-06-21T09:02:53.992Z,55.90
2018-06-21T09:05:22.452Z,53.50
2018-06-21T09:07:51.091Z,55.00
2018-06-21T09:10:19.620Z,56.50
2018-06-21T09:12:48.092Z,54.80
2018-06-21T09:15:16.711Z,55.10
2018-06-21T09:17:45.286Z,56.50
2018-06-21T09:20:13.798Z,56.40
2018-06-21T09:22:42.275Z,54.20
2018-06-21T09:25:10.725Z,53.80
2018-06-21T09:27:39.268Z,53.80
2018-06-21T09:30:07.722Z,53.00
2018-06-21T09:32:36.252Z,53.40
2018-06-21T09:35:04.730Z,54.30
2018-06-21T09:37:38.422Z,54.50
2018-06-21T09:40:12.139Z,55.00
2018-06-21T09:42:46.033Z,55.00
2018-06-21T09:45:18.755Z,54.70
2018-06-21T09:47:52.492Z,54.00
2018-06-21T09:50:20.993Z,53.50
2018-06-21T09:52:50.478Z,53.90
2018-06-21T09:55:20.203Z,54.00
2018-06-21T09:57:48.700Z,53.10
2018-06-21T10:01:20.607Z,53.10
2018-06-21T10:03:49.066Z,54.50
2018-06-21T10:06:17.501Z,54.10
2018-06-21T10:08:46.044Z,53.40
2018-06-21T10:11:14.561Z,52.80
2018-06-21T10:13:43.066Z,53.40
2018-06-21T10:16:11.523Z,52.90
2018-06-21T10:18:39.957Z,52.30
2018-06-21T10:21:08.946Z,52.50
2018-06-21T10:23:37.452Z,49.00
2018-06-21T10:26:06.036Z,49.70
2018-06-21T10:28:34.531Z,50.30
2018-06-21T10:31:02.965Z,50.30
2018-06-21T10:33:31.401Z,49.20
2018-06-21T10:35:59.853Z,49.70
2018-06-21T10:38:28.310Z,51.20
2018-06-21T10:40:56.783Z,51.10
2018-06-21T10:43:25.183Z,51.20
2018-06-21T10:45:53.611Z,50.80
2018-06-21T10:48:22.341Z,50.70
2018-06-21T10:50:50.787Z,50.90
2018-06-21T10:53:19.209Z,51.20
2018-06-21T10:55:47.661Z,52.00
2018-06-21T10:58:16.296Z,50.60
2018-06-21T11:00:44.740Z,52.20
2018-06-21T11:03:13.209Z,51.00
2018-06-21T11:05:41.664Z,50.20
2018-06-21T11:08:10.061Z,48.00
2018-06-21T11:10:38.466Z,47.90
2018-06-21T11:13:06.917Z,48.60
2018-06-21T11:15:35.334Z,50.00
2018-06-21T11:18:03.932Z,50.50
2018-06-21T11:20:32.356Z,51.70
2018-06-21T11:23:00.783Z,51.90
2018-06-21T11:25:29.196Z,52.00
2018-06-21T11:27:57.669Z,51.30
2018-06-21T11:30:26.103Z,51.10
2018-06-21T11:32:54.537Z,51.60
2018-06-21T11:35:22.952Z,50.30
2018-06-21T11:37:51.445Z,49.30
2018-06-21T11:40:19.837Z,49.50
2018-06-21T11:42:48.279Z,49.70
2018-06-21T11:45:16.735Z,50.10
2018-06-21T11:47:45.240Z,49.60
2018-06-21T11:50:13.584Z,50.10
2018-06-21T11:52:42.163Z,49.30
2018-06-21T11:55:13.547Z,48.30
2018-06-21T11:57:41.915Z,49.80
2018-06-21T12:00:10.260Z,50.30
2018-06-21T12:02:38.639Z,51.20
2018-06-21T12:05:07.035Z,50.80
2018-06-21T12:07:35.376Z,50.90
2018-06-21T12:10:03.734Z,51.50
2018-06-21T12:12:32.079Z,51.20
2018-06-21T12:15:03.558Z,51.70
2018-06-21T12:17:32.756Z,50.10
2018-06-21T12:20:01.094Z,50.40
2018-06-21T12:22:30.042Z,50.80
2018-06-21T12:24:58.395Z,50.90
2018-06-21T12:27:26.722Z,50.80
2018-06-21T12:29:55.108Z,51.10
2018-06-21T12:32:23.451Z,50.10
2018-06-21T12:34:52.371Z,49.90
2018-06-21T12:37:20.695Z,49.20
2018-06-21T12:39:49.068Z,49.80
2018-06-21T12:42:17.412Z,51.70
2018-06-21T12:44:45.784Z,51.90
2018-06-21T12:47:14.351Z,53.00
2018-06-21T12:49:42.731Z,53.20
2018-06-21T12:52:11.100Z,53.60
2018-06-21T12:54:39.459Z,54.10
2018-06-21T12:57:07.811Z,53.60
2018-06-21T12:59:36.386Z,53.40
2018-06-21T13:02:04.723Z,53.00
2018-06-21T13:04:33.099Z,53.40
2018-06-21T13:07:01.428Z,53.70
2018-06-21T13:09:41.091Z,52.70
2018-06-21T13:12:32.712Z,52.10
2018-06-21T13:15:01.103Z,50.90
2018-06-21T13:17:30.543Z,50.40
2018-06-21T13:19:59.950Z,50.50
2018-06-21T13:22:28.574Z,49.60
2018-06-21T13:24:56.972Z,49.40
2018-06-21T13:27:25.328Z,50.10
2018-06-21T13:29:53.687Z,49.80
2018-06-21T13:32:22.051Z,49.30
2018-06-21T13:34:50.542Z,50.00
2018-06-21T13:37:18.945Z,52.40
2018-06-21T13:39:47.294Z,52.50
2018-06-21T13:42:15.679Z,54.10
2018-06-21T13:44:44.116Z,54.90
2018-06-21T13:47:12.533Z,55.00
2018-06-21T13:49:40.828Z,55.00
2018-06-21T13:52:09.211Z,56.60
2018-06-21T13:54:37.609Z,59.90
2018-06-21T13:57:05.947Z,62.00
2018-06-21T13:59:34.304Z,62.30
2018-06-21T14:02:02.705Z,62.50
2018-06-21T14:04:31.051Z,62.60
2018-06-21T14:06:59.423Z,63.20
2018-06-21T14:09:27.763Z,63.40
2018-06-21T14:11:56.123Z,64.00
2018-06-21T14:14:24.476Z,64.60
2018-06-21T14:16:52.914Z,65.40
2018-06-21T14:19:21.382Z,65.60
2018-06-21T14:21:49.662Z,66.00
2018-06-21T14:24:18.033Z,66.20
2018-06-21T14:26:46.403Z,66.30
2018-06-21T14:29:14.780Z,66.50
2018-06-21T14:31:43.153Z,66.70
2018-06-21T14:34:11.543Z,67.40
2018-06-21T14:36:39.906Z,67.50
2018-06-21T14:39:08.960Z,67.50
2018-06-21T14:41:37.606Z,68.40
2018-06-21T14:44:06.070Z,68.90
2018-06-21T14:46:34.539Z,69.00
2018-06-21T14:49:02.935Z,69.10
2018-06-21T14:51:31.297Z,68.90
2018-06-21T14:53:59.736Z,68.50
2018-06-21T14:56:28.122Z,68.60
2018-06-21T14:58:56.493Z,67.80
2018-06-21T15:01:24.851Z,68.10
2018-06-21T15:03:53.235Z,67.10
2018-06-21T15:06:21.731Z,67.00
2018-06-21T15:08:50.145Z,67.20
2018-06-21T15:11:18.527Z,66.90
2018-06-21T15:13:49.931Z,67.30
2018-06-21T15:16:20.076Z,66.70
2018-06-21T15:18:48.536Z,66.70
2018-06-21T15:21:17.348Z,66.50
2018-06-21T15:23:45.871Z,66.30
2018-06-21T15:26:14.227Z,67.00
2018-06-21T15:28:42.801Z,67.30
2018-06-21T15:31:11.303Z,66.30
2018-06-21T15:33:39.690Z,66.80
2018-06-21T15:36:09.240Z,67.30
2018-06-21T15:38:37.681Z,67.40
2018-06-21T15:41:06.047Z,67.70
2018-06-21T15:43:34.627Z,67.70
2018-06-21T15:46:02.987Z,68.30
2018-06-21T15:48:31.482Z,68.60
2018-06-21T15:50:59.868Z,68.90
2018-06-21T15:53:28.311Z,68.70
2018-06-21T15:55:56.739Z,68.30
2018-06-21T15:58:25.189Z,67.80
2018-06-21T16:00:53.576Z,69.10
2018-06-21T16:03:21.936Z,69.10
2018-06-21T16:05:50.391Z,69.20
2018-06-21T16:08:18.741Z,69.30
2018-06-21T16:10:47.227Z,69.10
2018-06-21T16:13:16.479Z,68.60
2018-06-21T16:15:46.146Z,69.20
2018-06-21T16:18:14.547Z,69.10
2018-06-21T16:20:43.109Z,68.50
2018-06-21T16:23:11.849Z,68.10
2018-06-21T16:25:40.253Z,68.30
2018-06-21T16:28:08.723Z,69.10
2018-06-21T16:30:37.148Z,70.80
2018-06-21T16:33:05.711Z,68.80
2018-06-21T16:35:34.107Z,72.20
2018-06-21T16:38:02.494Z,72.60
2018-06-21T16:40:30.860Z,71.90
2018-06-21T16:42:59.540Z,72.40
2018-06-21T16:45:28.054Z,67.70
2018-06-21T16:47:56.577Z,64.00
2018-06-21T16:50:25.059Z,60.80
2018-06-21T16:52:53.555Z,60.60
2018-06-21T16:55:21.980Z,59.80
2018-06-21T16:57:50.377Z,59.40
2018-06-21T17:00:18.748Z,59.00
2018-06-21T17:02:47.111Z,58.30
2018-06-21T17:05:15.788Z,58.20
2018-06-21T17:07:44.514Z,57.10
2018-06-21T17:10:12.876Z,55.90
2018-06-21T17:12:41.255Z,55.60
2018-06-21T17:15:09.767Z,55.60
2018-06-21T17:17:38.281Z,55.50
2018-06-21T17:20:06.655Z,55.50
2018-06-21T17:22:35.098Z,55.30
2018-06-21T17:25:03.647Z,55.20
2018-06-21T17:27:32.015Z,54.40
2018-06-21T17:30:00.379Z,54.10
2018-06-21T17:32:28.772Z,54.10
2018-06-21T17:34:57.148Z,54.60
2018-06-21T17:37:25.848Z,54.90
2018-06-21T17:39:54.182Z,54.60
2018-06-21T17:42:22.581Z,54.20
2018-06-21T17:44:50.965Z,54.00
2018-06-21T17:47:19.363Z,54.50
2018-06-21T17:49:47.715Z,53.50
2018-06-21T17:52:16.083Z,53.10
2018-06-21T17:54:44.431Z,53.30
2018-06-21T17:57:12.814Z,51.80
2018-06-21T17:59:41.155Z,50.90
2018-06-21T18:02:09.541Z,49.50
2018-06-21T18:04:37.935Z,49.00
2018-06-21T18:07:06.331Z,46.80
2018-06-21T18:09:34.685Z,46.20
2018-06-21T18:12:03.615Z,45.40
2018-06-21T18:14:31.999Z,44.50
2018-06-21T18:17:00.451Z,44.20
2018-06-21T18:19:28.923Z,44.40
2018-06-21T18:21:57.313Z,44.30
2018-06-21T18:24:25.706Z,43.60
2018-06-21T18:26:54.219Z,43.50
2018-06-21T18:29:23.594Z,42.80
2018-06-21T18:31:52.516Z,42.50
2018-06-21T18:34:20.883Z,41.90
2018-06-21T18:36:50.190Z,42.00
2018-06-21T18:39:20.996Z,42.00
2018-06-21T18:41:49.403Z,41.90
2018-06-21T18:44:17.772Z,42.20
2018-06-21T18:46:46.140Z,42.60
2018-06-21T18:49:14.523Z,42.90
2018-06-21T18:51:43.160Z,42.80
2018-06-21T18:54:11.515Z,42.90
2018-06-21T18:56:39.871Z,43.00
2018-06-21T18:59:08.264Z,42.70
2018-06-21T19:01:36.871Z,43.00
2018-06-21T19:04:05.264Z,43.50
2018-06-21T19:07:40.710Z,43.70
2018-06-21T19:10:14.503Z,43.70
2018-06-21T19:12:43.029Z,43.60
2018-06-21T19:15:11.386Z,43.70
2018-06-21T19:17:39.826Z,43.90
2018-06-21T19:20:08.171Z,43.50
2018-06-21T19:22:36.538Z,43.50
2018-06-21T19:25:04.903Z,43.50
2018-06-21T19:27:33.238Z,44.00
2018-06-21T19:30:01.653Z,44.30
2018-06-21T19:32:30.113Z,44.60
2018-06-21T19:34:58.517Z,44.70
2018-06-21T19:37:26.907Z,44.70
2018-06-21T19:39:55.304Z,45.40
2018-06-21T19:42:23.657Z,44.80
2018-06-21T19:44:52.034Z,45.30
2018-06-21T19:47:20.374Z,45.30
2018-06-21T19:49:48.912Z,45.40
2018-06-21T19:52:17.275Z,45.50
2018-06-21T19:54:46.008Z,45.20
2018-06-21T19:57:14.731Z,45.10
2018-06-21T19:59:43.119Z,45.50
2018-06-21T20:02:11.967Z,45.40
2018-06-21T20:04:40.399Z,45.70
2018-06-21T20:07:09.963Z,45.90
2018-06-21T20:09:38.384Z,46.20
2018-06-21T20:12:06.998Z,46.50
2018-06-21T20:14:35.771Z,46.80
2018-06-21T20:17:04.187Z,47.40
2018-06-21T20:19:37.798Z,47.40
2018-06-21T20:22:06.651Z,47.70
2018-06-21T20:24:35.011Z,47.70
2018-06-21T20:27:03.403Z,48.70
2018-06-21T20:29:31.749Z,48.00
2018-06-21T20:32:00.115Z,48.00
2018-06-21T20:34:28.478Z,48.20
2018-06-21T20:36:56.840Z,48.30
2018-06-21T20:39:25.171Z,48.70
2018-06-21T20:41:53.534Z,49.10
2018-06-21T20:44:21.872Z,48.80
2018-06-21T20:46:50.245Z,48.70
2018-06-21T20:49:18.598Z,48.70
2018-06-21T20:51:46.980Z,49.10
2018-06-21T20:54:15.343Z,49.30
2018-06-21T20:56:43.774Z,49.10
2018-06-21T20:59:12.835Z,49.40
2018-06-21T21:01:41.979Z,49.50
2018-06-21T21:04:10.593Z,49.60
2018-06-21T21:06:38.971Z,49.70
2018-06-21T21:09:07.609Z,49.60
2018-06-21T21:11:36.015Z,49.40
2018-06-21T21:14:04.463Z,49.80
2018-06-21T21:16:32.885Z,50.10
2018-06-21T21:19:01.191Z,50.00
2018-06-21T21:21:29.818Z,50.40
2018-06-21T21:23:58.196Z,50.60
2018-06-21T21:26:26.556Z,50.60
2018-06-21T21:28:54.896Z,50.90
2018-06-21T21:31:23.279Z,51.10
2018-06-21T21:33:51.860Z,51.60
2018-06-21T21:36:20.240Z,51.50
2018-06-21T21:38:48.591Z,51.80
2018-06-21T21:41:16.947Z,52.20
2018-06-21T21:43:45.331Z,52.50
2018-06-21T21:46:13.755Z,52.30
2018-06-21T21:48:42.123Z,52.00
2018-06-21T21:51:10.496Z,52.30
2018-06-21T21:53:38.884Z,52.40
2018-06-21T21:56:07.241Z,52.00
2018-06-21T21:58:35.599Z,52.20
2018-06-21T22:01:04.061Z,52.60
2018-06-21T22:03:32.364Z,52.20
2018-06-21T22:06:00.731Z,52.40
2018-06-21T22:08:29.078Z,52.60
2018-06-21T22:10:57.418Z,51.90
2018-06-21T22:13:25.776Z,52.50
2018-06-21T22:15:54.135Z,52.30
2018-06-21T22:18:22.499Z,52.30
2018-06-21T22:20:50.834Z,52.30
2018-06-21T22:23:19.337Z,52.50
2018-06-21T22:25:47.694Z,52.30
2018-06-21T22:28:16.057Z,52.10
2018-06-21T22:30:44.400Z,52.10
2018-06-21T22:33:12.954Z,52.40
2018-06-21T22:35:41.296Z,53.30
2018-06-21T22:38:09.668Z,53.20
2018-06-21T22:40:38.007Z,52.70
2018-06-21T22:43:06.373Z,53.10
2018-06-21T22:45:34.726Z,53.00
2018-06-21T22:48:03.062Z,53.00
2018-06-21T22:50:31.453Z,53.10
2018-06-21T22:52:59.775Z,53.00
2018-06-21T22:55:28.127Z,52.90
2018-06-21T22:57:56.464Z,53.00
2018-06-21T23:00:24.812Z,53.00
2018-06-21T23:02:53.168Z,53.00
2018-06-21T23:05:21.579Z,52.90
2018-06-21T23:07:49.873Z,54.00
2018-06-21T23:10:18.238Z,53.20
2018-06-21T23:12:46.624Z,53.50
2018-06-21T23:15:14.975Z,53.70
2018-06-21T23:17:43.335Z,53.40
2018-06-21T23:20:11.729Z,53.60
2018-06-21T23:22:40.071Z,53.80
2018-06-21T23:25:08.419Z,54.10
2018-06-21T23:27:37.024Z,54.50
2018-06-21T23:30:05.454Z,54.50
2018-06-21T23:32:33.785Z,54.80
2018-06-21T23:35:02.140Z,55.40
2018-06-21T23:37:30.487Z,55.30
2018-06-21T23:39:58.847Z,55.50
2018-06-21T23:42:27.181Z,55.70
2018-06-21T23:44:55.571Z,56.20
2018-06-21T23:47:23.916Z,56.60
2018-06-21T23:49:52.276Z,56.40
2018-06-21T23:52:20.622Z,56.70
2018-06-21T23:54:49.023Z,56.90
2018-06-21T23:57:17.384Z,57.30
2018-06-21T23:59:45.867Z,57.50
